Time;durP1;ratioP1;P1;durP2;ratioP2;P2;SDS_P1;SDS_P2;PMS_P1;PMS_P2;Temp;Humidity;BMP_temperature;BMP_pressure;BME280_temperature;BME280_humidity;BME280_pressure;Samples;Min_cycle;Max_cycle;Signal;HPM_P1;HPM_P2
2020/12/26 00:01:17;;;;;;;4.55;3.20;;;;;;;18.55;54.06;102545.41;4825133;29;20043;-79
2020/12/26 00:03:43;;;;;;;4.30;2.88;;;;;;;18.52;53.92;102533.97;4825533;29;20054;-72
2020/12/26 00:06:12;;;;;;;4.50;3.10;;;;;;;18.52;54.02;102528.75;4794536;29;20107;-72
2020/12/26 00:08:37;;;;;;;4.10;2.58;;;;;;;18.50;54.08;102519.97;4809374;29;20038;-72
2020/12/26 00:11:02;;;;;;;3.53;2.63;;;;;;;18.53;53.94;102526.16;4792732;29;20042;-72
2020/12/26 00:13:28;;;;;;;5.10;3.42;;;;;;;18.52;53.93;102526.13;4793963;29;20038;-72
2020/12/26 00:15:53;;;;;;;4.63;3.00;;;;;;;18.52;53.85;102532.25;4808471;29;20046;-72
2020/12/26 00:18:19;;;;;;;4.82;2.78;;;;;;;18.50;53.94;102525.19;4808920;29;20035;-72
2020/12/26 00:20:44;;;;;;;3.42;2.60;;;;;;;18.50;53.86;102519.97;4825114;29;20030;-72
2020/12/26 00:23:10;;;;;;;4.38;2.75;;;;;;;18.47;53.80;102512.91;4814510;29;20050;-72
2020/12/26 00:25:35;;;;;;;4.10;3.08;;;;;;;18.44;53.78;102501.47;4794447;29;20371;-72
2020/12/26 00:28:00;;;;;;;4.20;2.75;;;;;;;18.50;53.91;102514.72;4824183;29;20038;-73
2020/12/26 00:30:26;;;;;;;3.92;2.60;;;;;;;18.49;53.95;102515.56;4807083;29;20089;-72
2020/12/26 00:32:51;;;;;;;3.22;2.58;;;;;;;18.44;53.71;102504.97;4824848;29;20042;-72
2020/12/26 00:35:17;;;;;;;4.43;2.38;;;;;;;18.42;53.88;102501.47;4809232;29;20186;-72
2020/12/26 00:37:42;;;;;;;2.55;2.05;;;;;;;18.46;53.93;102513.75;4815658;29;20068;-72
2020/12/26 00:40:07;;;;;;;5.00;2.30;;;;;;;18.45;53.76;102508.50;4821709;29;20034;-72
2020/12/26 00:42:33;;;;;;;2.97;2.47;;;;;;;18.44;53.78;102510.22;4791440;29;20051;-72
2020/12/26 00:44:58;;;;;;;3.83;2.72;;;;;;;18.43;53.87;102510.22;4793224;29;20042;-72
2020/12/26 00:47:23;;;;;;;4.70;2.30;;;;;;;18.40;53.91;102497.94;4808591;29;20394;-72
2020/12/26 00:49:49;;;;;;;3.55;2.42;;;;;;;18.44;53.77;102499.75;4809854;29;20114;-72
2020/12/26 00:52:14;;;;;;;2.70;2.10;;;;;;;18.44;53.72;102501.47;4810050;29;20486;-72
2020/12/26 00:54:40;;;;;;;4.45;2.25;;;;;;;18.43;53.83;102498.00;4793277;29;20390;-72
2020/12/26 00:57:06;;;;;;;2.83;2.35;;;;;;;18.45;53.74;102509.38;4824503;29;20042;-72
2020/12/26 00:59:31;;;;;;;3.55;2.47;;;;;;;18.42;53.95;102504.09;4808759;29;20046;-72
2020/12/26 01:01:56;;;;;;;2.85;1.88;;;;;;;18.38;53.80;102498.75;4808097;29;20041;-72
2020/12/26 01:04:22;;;;;;;4.22;1.63;;;;;;;18.37;53.94;102497.84;4808312;29;20074;-72
2020/12/26 01:06:54;;;;;;;4.45;2.10;;;;;;;18.40;53.92;102515.38;4824857;29;20033;-72
2020/12/26 01:09:21;;;;;;;3.83;2.22;;;;;;;18.40;53.85;102503.16;4824304;29;20034;-72
2020/12/26 01:11:46;;;;;;;2.47;1.75;;;;;;;18.39;53.58;102496.16;4824080;29;20031;-72
2020/12/26 01:14:12;;;;;;;3.47;1.67;;;;;;;18.37;53.88;102492.63;4824765;29;20044;-72
2020/12/26 01:16:37;;;;;;;2.17;1.70;;;;;;;18.36;53.89;102480.38;4790608;29;20035;-72
2020/12/26 01:19:02;;;;;;;4.75;1.88;;;;;;;18.37;53.71;102482.13;4792703;29;20070;-73
2020/12/26 01:21:28;;;;;;;3.03;1.95;;;;;;;18.39;53.67;102490.03;4805993;29;20177;-79
2020/12/26 01:23:55;;;;;;;3.63;2.50;;;;;;;18.25;53.62;102462.66;4806007;29;20034;-79
2020/12/26 01:26:21;;;;;;;2.63;1.90;;;;;;;18.36;53.69;102487.34;4823895;29;20041;-79
2020/12/26 01:28:47;;;;;;;3.72;2.13;;;;;;;18.32;53.62;102477.63;4824641;29;20113;-80
2020/12/26 01:31:12;;;;;;;3.00;2.15;;;;;;;18.35;53.46;102481.22;4808022;29;20038;-79
2020/12/26 01:33:38;;;;;;;2.53;1.90;;;;;;;18.35;53.43;102477.72;4824311;29;20385;-79
2020/12/26 01:36:03;;;;;;;2.83;1.77;;;;;;;18.31;53.56;102466.28;4808375;29;20042;-78
2020/12/26 01:38:28;;;;;;;2.75;1.75;;;;;;;18.33;53.65;102468.94;4808712;29;20053;-79
2020/12/26 01:40:53;;;;;;;4.18;2.45;;;;;;;18.32;53.79;102475.03;4808927;29;20109;-79
2020/12/26 01:43:19;;;;;;;4.90;1.70;;;;;;;18.34;53.97;102479.44;4793647;29;20115;-79
2020/12/26 01:45:45;;;;;;;2.47;1.50;;;;;;;18.32;53.86;102473.28;4808657;29;20424;-79
2020/12/26 01:48:18;;;;;;;3.53;1.80;;;;;;;18.29;53.79;102469.75;4808292;29;20494;-79
2020/12/26 01:50:44;;;;;;;2.55;1.40;;;;;;;18.31;53.90;102471.53;4825023;29;20033;-79
2020/12/26 01:53:11;;;;;;;2.53;1.70;;;;;;;18.32;53.50;102472.41;4808073;29;20026;-80
2020/12/26 01:55:37;;;;;;;2.63;1.75;;;;;;;18.27;53.86;102469.72;4808092;29;20026;-80
2020/12/26 01:58:03;;;;;;;2.10;1.65;;;;;;;18.29;53.65;102477.59;4808233;29;20038;-79
2020/12/26 02:00:29;;;;;;;2.85;1.77;;;;;;;18.28;53.62;102471.47;4811760;29;20069;-79
2020/12/26 02:02:54;;;;;;;2.70;1.90;;;;;;;18.28;53.74;102481.94;4808128;29;20053;-78
2020/12/26 02:05:20;;;;;;;2.63;1.70;;;;;;;18.29;53.61;102477.59;4824487;29;20046;-79
2020/12/26 02:07:46;;;;;;;3.72;2.00;;;;;;;18.28;53.79;102471.47;4806338;29;20042;-80
2020/12/26 02:10:13;;;;;;;2.25;1.45;;;;;;;18.26;53.42;102459.19;4792309;29;20039;-79
2020/12/26 02:12:39;;;;;;;2.10;1.35;;;;;;;18.24;53.70;102456.53;4807883;29;20038;-72
2020/12/26 02:15:04;;;;;;;4.07;2.00;;;;;;;18.26;53.75;102447.00;4808697;29;20042;-72
2020/12/26 02:17:29;;;;;;;2.03;1.40;;;;;;;18.23;53.59;102441.69;4807962;29;20383;-72
2020/12/26 02:19:55;;;;;;;2.63;1.70;;;;;;;18.23;53.53;102438.16;4823068;29;20034;-72
2020/12/26 02:22:20;;;;;;;1.95;1.40;;;;;;;18.16;53.68;102413.59;4807188;29;20094;-72
2020/12/26 02:24:46;;;;;;;1.88;1.30;;;;;;;18.24;53.68;102434.69;4821879;29;20038;-72
2020/12/26 02:27:12;;;;;;;2.58;1.73;;;;;;;18.23;53.76;102427.69;4821696;29;20091;-72
2020/12/26 02:29:37;;;;;;;2.60;1.63;;;;;;;18.24;53.88;102424.22;4793242;29;20034;-72
2020/12/26 02:32:03;;;;;;;1.98;1.30;;;;;;;18.21;53.49;102415.44;4822307;29;20094;-72
2020/12/26 02:34:29;;;;;;;3.28;2.15;;;;;;;18.17;53.39;102400.56;4807267;29;20057;-72
2020/12/26 02:36:54;;;;;;;2.05;1.48;;;;;;;18.18;53.41;102388.31;4824104;29;20075;-72
2020/12/26 02:39:19;;;;;;;2.45;1.42;;;;;;;18.16;53.55;102374.34;4788272;29;20125;-72
2020/12/26 02:41:48;;;;;;;1.90;1.30;;;;;;;18.17;53.55;102355.16;4826336;29;20427;-72
2020/12/26 02:44:13;;;;;;;1.98;1.23;;;;;;;18.16;53.50;102340.28;4826045;29;20474;-72
2020/12/26 02:46:39;;;;;;;1.92;1.40;;;;;;;18.17;53.72;102342.94;4811043;29;20042;-72
2020/12/26 02:49:04;;;;;;;2.55;1.40;;;;;;;18.14;53.71;102335.03;4781121;29;20041;-72
2020/12/26 02:51:30;;;;;;;2.63;1.25;;;;;;;18.20;53.65;102340.38;4825295;29;20038;-72
2020/12/26 02:53:55;;;;;;;1.98;1.23;;;;;;;18.20;53.58;102334.25;4827351;29;20046;-72
2020/12/26 02:56:21;;;;;;;2.65;1.60;;;;;;;18.18;53.52;102323.75;4809452;29;20095;-72
2020/12/26 02:58:46;;;;;;;1.95;1.45;;;;;;;18.14;53.31;102327.16;4796926;29;20471;-72
2020/12/26 03:01:12;;;;;;;2.00;1.23;;;;;;;18.15;53.56;102328.94;4780878;29;20049;-72
2020/12/26 03:03:37;;;;;;;1.67;1.02;;;;;;;18.16;53.66;102325.47;4797220;29;20070;-72
2020/12/26 03:06:03;;;;;;;2.00;1.20;;;;;;;18.14;53.44;102323.66;4814209;29;20031;-72
2020/12/26 03:08:28;;;;;;;1.70;1.10;;;;;;;18.13;53.62;102328.03;4807933;29;20513;-72
2020/12/26 03:10:53;;;;;;;1.88;1.20;;;;;;;18.14;53.46;102323.66;4826938;29;20042;-72
2020/12/26 03:13:19;;;;;;;2.22;1.30;;;;;;;18.14;53.57;102332.41;4792770;29;20058;-72
2020/12/26 03:15:45;;;;;;;2.35;1.33;;;;;;;18.15;53.72;102322.81;4825927;29;20092;-72
2020/12/26 03:18:10;;;;;;;1.83;1.27;;;;;;;18.15;53.75;102328.94;4824803;29;20046;-72
2020/12/26 03:20:35;;;;;;;1.77;1.45;;;;;;;18.16;53.74;102329.81;4799018;29;20095;-72
2020/12/26 03:23:01;;;;;;;2.22;1.13;;;;;;;18.11;53.53;102323.59;4818016;29;20057;-72
2020/12/26 03:25:26;;;;;;;2.15;1.05;;;;;;;18.11;53.49;102329.72;4810149;29;20038;-72
2020/12/26 03:27:51;;;;;;;2.33;1.42;;;;;;;18.11;53.56;102327.09;4824799;29;20118;-72
2020/12/26 03:30:17;;;;;;;2.35;1.50;;;;;;;18.11;53.81;102329.72;4810139;29;20059;-72
2020/12/26 03:32:42;;;;;;;3.03;1.30;;;;;;;18.14;53.34;102321.06;4795652;29;20040;-72
2020/12/26 03:35:08;;;;;;;1.38;0.85;;;;;;;18.12;53.48;102318.41;4792349;29;20042;-72
2020/12/26 03:37:35;;;;;;;1.73;1.10;;;;;;;18.10;53.67;102320.09;4825207;29;20460;-72
2020/12/26 03:40:01;;;;;;;2.05;1.15;;;;;;;18.10;53.39;102309.63;4823753;29;20383;-72
2020/12/26 03:42:26;;;;;;;1.48;1.08;;;;;;;18.01;53.49;102304.22;4808310;29;20041;-72
2020/12/26 03:44:52;;;;;;;2.03;0.98;;;;;;;18.13;53.41;102316.66;4810043;29;20040;-72
2020/12/26 03:47:17;;;;;;;2.28;1.20;;;;;;;18.11;53.59;102308.78;4825301;29;20034;-72
2020/12/26 03:49:43;;;;;;;1.45;0.88;;;;;;;18.08;53.70;102310.44;4825940;29;20071;-72
2020/12/26 03:52:08;;;;;;;1.65;1.08;;;;;;;18.11;53.60;102315.75;4824212;29;20038;-72
2020/12/26 03:54:33;;;;;;;4.60;1.05;;;;;;;18.08;53.62;102311.31;4825465;29;20117;-72
2020/12/26 03:56:59;;;;;;;1.77;1.05;;;;;;;18.08;53.42;102306.09;4795048;29;20045;-72
2020/12/26 03:59:24;;;;;;;2.35;1.10;;;;;;;18.08;53.47;102295.63;4808982;29;20402;-72
2020/12/26 04:01:50;;;;;;;0.73;0.60;;;;;;;18.09;53.47;102296.50;4806843;29;20112;-72
2020/12/26 04:04:15;;;;;;;2.38;1.08;;;;;;;18.08;53.30;102292.13;4807753;29;20055;-72
2020/12/26 04:06:45;;;;;;;4.30;1.23;;;;;;;18.10;53.37;102288.69;4809286;29;20060;-73
2020/12/26 04:09:11;;;;;;;2.35;0.90;;;;;;;18.09;53.61;102286.91;4823990;29;20053;-72
2020/12/26 04:11:37;;;;;;;1.95;1.20;;;;;;;18.09;53.53;102279.06;4825478;29;20045;-72
2020/12/26 04:14:02;;;;;;;0.80;0.68;;;;;;;18.08;53.27;102274.69;4825405;29;20447;-72
2020/12/26 04:16:28;;;;;;;1.60;1.02;;;;;;;18.02;53.54;102271.97;4808669;29;20031;-72
2020/12/26 04:18:53;;;;;;;1.65;1.00;;;;;;;18.08;53.68;102282.53;4794330;29;20039;-73
2020/12/26 04:21:22;;;;;;;1.58;0.95;;;;;;;18.07;53.84;102264.16;4825270;29;20058;-72
2020/12/26 04:23:51;;;;;;;2.28;0.98;;;;;;;18.06;53.68;102265.91;4825458;29;20121;-72
2020/12/26 04:26:17;;;;;;;2.47;0.90;;;;;;;18.04;53.33;102259.78;4823574;29;20030;-72
2020/12/26 04:28:43;;;;;;;1.88;1.10;;;;;;;18.04;53.57;102251.94;4824939;29;20045;-72
2020/12/26 04:31:08;;;;;;;1.88;1.30;;;;;;;18.04;53.49;102261.53;4825532;29;20030;-72
2020/12/26 04:33:34;;;;;;;2.50;1.35;;;;;;;18.03;53.57;102258.03;4821799;29;20038;-72
2020/12/26 04:35:59;;;;;;;1.65;1.08;;;;;;;18.03;53.60;102251.91;4814687;29;20460;-72
2020/12/26 04:38:24;;;;;;;1.83;0.70;;;;;;;18.04;53.67;102251.94;4808353;29;20047;-72
2020/12/26 04:40:50;;;;;;;1.98;1.10;;;;;;;18.02;53.39;102251.00;4824235;29;20062;-72
2020/12/26 04:43:15;;;;;;;1.92;1.20;;;;;;;18.01;53.58;102245.75;4809161;29;20069;-72
2020/12/26 04:45:41;;;;;;;2.53;0.98;;;;;;;18.03;53.44;102244.94;4808702;29;20034;-72
2020/12/26 04:48:14;;;;;;;1.13;0.70;;;;;;;18.01;53.56;102241.41;4809557;29;20413;-72
2020/12/26 04:50:46;;;;;;;2.40;1.13;;;;;;;18.02;53.53;102253.63;4824987;29;20076;-72
2020/12/26 04:53:15;;;;;;;1.52;0.90;;;;;;;18.00;53.72;102241.38;4823933;29;20026;-72
2020/12/26 04:55:46;;;;;;;1.45;0.73;;;;;;;17.97;53.83;102226.47;4801847;29;20039;-72
2020/12/26 04:58:11;;;;;;;0.95;0.65;;;;;;;17.96;53.44;102224.72;4815672;29;20486;-72
2020/12/26 05:00:38;;;;;;;1.88;0.82;;;;;;;18.00;53.48;102226.53;4776878;29;20035;-72
2020/12/26 05:03:12;;;;;;;1.50;0.73;;;;;;;18.01;53.92;102230.03;4824326;29;20078;-72
2020/12/26 05:05:43;;;;;;;1.60;0.80;;;;;;;18.02;53.72;102237.94;4823008;29;20035;-72
2020/12/26 05:08:11;;;;;;;1.65;0.75;;;;;;;18.00;53.74;102231.78;4824034;29;20038;-72
2020/12/26 05:10:38;;;;;;;1.38;0.88;;;;;;;17.98;53.60;102238.72;4805954;29;20030;-72
2020/12/26 05:13:05;;;;;;;1.60;0.90;;;;;;;18.02;53.46;102234.44;4811516;29;20030;-72
2020/12/26 05:15:31;;;;;;;1.00;0.90;;;;;;;18.00;53.48;102223.94;4823408;29;20041;-72
2020/12/26 05:17:56;;;;;;;2.15;1.05;;;;;;;18.01;53.71;102227.44;4808294;29;20034;-72
2020/12/26 05:20:26;;;;;;;1.60;0.70;;;;;;;17.98;53.17;102225.63;4807846;29;20038;-72
2020/12/26 05:23:16;;;;;;;1.20;0.70;;;;;;;17.99;53.57;102214.31;4807513;29;20103;-72
2020/12/26 05:25:47;;;;;;;1.58;0.90;;;;;;;18.00;53.29;102212.56;4823235;29;20030;-73
2020/12/26 05:28:15;;;;;;;1.10;0.70;;;;;;;18.00;53.35;102213.47;4823466;29;20034;-72
2020/12/26 05:30:42;;;;;;;1.50;1.00;;;;;;;18.00;53.18;102210.84;4823063;29;20105;-72
2020/12/26 05:33:08;;;;;;;3.17;0.88;;;;;;;17.94;53.42;102200.25;4823893;29;20531;-72
2020/12/26 05:35:36;;;;;;;1.05;0.70;;;;;;;17.97;53.36;102205.53;4804987;29;20054;-72
2020/12/26 05:38:31;;;;;;;1.42;0.80;;;;;;;17.98;53.06;102206.41;4818983;29;20038;-72
2020/12/26 05:41:01;;;;;;;2.03;0.70;;;;;;;17.98;53.27;102198.56;4810148;29;20048;-72
2020/12/26 05:43:29;;;;;;;2.42;1.45;;;;;;;17.97;53.13;102202.03;4824431;29;20079;-72
2020/12/26 05:45:55;;;;;;;1.05;0.82;;;;;;;17.98;53.33;102211.66;4807263;29;20023;-72
2020/12/26 05:48:22;;;;;;;0.73;0.68;;;;;;;17.98;53.24;102217.78;4807933;29;20343;-72
2020/12/26 05:50:51;;;;;;;0.93;0.60;;;;;;;17.94;53.21;102207.22;4807413;29;20053;-72
2020/12/26 05:53:17;;;;;;;1.98;0.90;;;;;;;17.96;53.16;102211.63;4822202;29;20038;-72
2020/12/26 05:55:45;;;;;;;1.75;1.02;;;;;;;17.95;53.34;102199.38;4777140;29;20041;-72
2020/12/26 05:58:12;;;;;;;1.98;0.80;;;;;;;17.91;53.53;102204.56;4823668;29;20040;-72
2020/12/26 06:00:40;;;;;;;0.85;0.68;;;;;;;17.91;53.12;102200.22;4792528;29;20030;-72
2020/12/26 06:03:33;;;;;;;1.73;0.80;;;;;;;17.94;53.18;102197.63;4822071;29;20468;-72
2020/12/26 06:06:01;;;;;;;1.63;1.10;;;;;;;17.90;53.45;102197.56;4805476;29;20054;-72
2020/12/26 06:08:29;;;;;;;1.88;0.80;;;;;;;17.92;53.09;102193.22;4823366;29;20050;-72
2020/12/26 06:11:01;;;;;;;1.67;0.77;;;;;;;17.93;53.16;102193.25;4807675;29;20130;-72
2020/12/26 06:13:28;;;;;;;1.20;0.73;;;;;;;17.93;53.37;102197.59;4822251;29;20444;-73
2020/12/26 06:15:59;;;;;;;1.27;0.75;;;;;;;17.91;53.21;102187.13;4802610;29;20310;-72
2020/12/26 06:18:24;;;;;;;1.02;0.70;;;;;;;17.90;53.31;102177.50;4807903;29;20092;-72
2020/12/26 06:20:52;;;;;;;1.70;0.70;;;;;;;17.89;53.11;102169.63;4807619;29;20031;-72
2020/12/26 06:23:22;;;;;;;1.58;0.90;;;;;;;17.90;52.85;102174.00;4823886;29;20117;-72
2020/12/26 06:25:49;;;;;;;1.45;1.00;;;;;;;17.90;53.28;102177.50;4823721;29;20035;-72
2020/12/26 06:28:23;;;;;;;1.58;1.05;;;;;;;17.91;53.30;102173.16;4823606;29;20113;-73
2020/12/26 06:30:49;;;;;;;1.27;0.68;;;;;;;17.86;53.25;102157.34;4823181;29;20191;-72
2020/12/26 06:33:15;;;;;;;1.27;0.70;;;;;;;17.89;52.93;102165.28;4790452;29;20034;-72
2020/12/26 06:35:42;;;;;;;1.27;0.77;;;;;;;17.84;52.91;102159.94;4805370;29;20079;-72
2020/12/26 06:38:18;;;;;;;1.23;0.80;;;;;;;17.88;53.08;102171.34;4821264;29;20038;-72
2020/12/26 06:40:52;;;;;;;1.55;0.85;;;;;;;17.88;53.11;102173.97;4805302;29;20029;-72
2020/12/26 06:43:39;;;;;;;1.13;1.00;;;;;;;17.89;53.00;102173.13;4803238;29;20636;-72
2020/12/26 06:46:13;;;;;;;1.70;0.70;;;;;;;17.91;53.17;102179.28;4819695;29;20042;-72
2020/12/26 06:48:43;;;;;;;0.85;0.68;;;;;;;17.91;52.96;102184.50;4805721;29;20391;-73
2020/12/26 06:51:36;;;;;;;1.48;0.73;;;;;;;17.93;52.69;102168.81;4805826;29;20194;-72
2020/12/26 06:54:04;;;;;;;0.80;0.60;;;;;;;17.92;52.93;102161.81;4822213;29;20034;-72
2020/12/26 06:56:32;;;;;;;1.58;0.80;;;;;;;17.94;52.57;102162.72;4823827;29;20035;-73
2020/12/26 06:58:58;;;;;;;1.75;0.75;;;;;;;17.90;52.78;102161.81;4822635;29;20026;-75
2020/12/26 07:01:23;;;;;;;0.65;0.57;;;;;;;17.93;52.63;102169.69;4792462;29;20034;-73
2020/12/26 07:04:07;;;;;;;1.70;1.02;;;;;;;18.06;52.74;102176.91;4821704;29;20110;-76
2020/12/26 07:06:36;;;;;;;0.68;0.60;;;;;;;18.17;52.22;102170.16;4815948;29;20038;-78
2020/12/26 07:09:01;;;;;;;0.98;0.68;;;;;;;18.19;52.14;102159.69;4807709;29;20022;-73
2020/12/26 07:11:27;;;;;;;3.45;0.70;;;;;;;18.19;52.17;102155.31;4802566;29;20046;-73
2020/12/26 07:13:53;;;;;;;1.55;0.70;;;;;;;18.33;52.05;102166.03;4791179;29;20030;-74
2020/12/26 07:16:40;;;;;;;0.75;0.60;;;;;;;18.42;51.95;102155.72;4804848;29;20109;-76
2020/12/26 07:19:22;;;;;;;1.23;0.80;;;;;;;18.36;51.80;102145.13;4822788;29;20113;-77
2020/12/26 07:21:58;;;;;;;1.30;0.60;;;;;;;18.39;51.96;102145.19;4819403;29;20103;-73
2020/12/26 07:24:38;;;;;;;1.40;0.80;;;;;;;18.51;51.77;102134.03;4811931;29;20600;-72
2020/12/26 07:27:13;;;;;;;0.82;0.60;;;;;;;18.47;51.83;102133.09;4817923;29;20030;-72
2020/12/26 07:29:57;;;;;;;0.98;0.70;;;;;;;18.45;52.01;102129.56;4822717;29;20030;-72
2020/12/26 07:32:42;;;;;;;0.70;0.50;;;;;;;18.59;52.00;102131.53;4822100;29;20034;-73
2020/12/26 07:35:19;;;;;;;0.65;0.50;;;;;;;18.55;51.72;102123.63;4821033;29;20062;-73
2020/12/26 07:37:54;;;;;;;0.70;0.60;;;;;;;18.42;51.91;102105.97;4808270;29;20026;-72
2020/12/26 07:40:28;;;;;;;0.98;0.50;;;;;;;18.56;51.99;102108.78;4804834;29;20490;-72
2020/12/26 07:42:55;;;;;;;1.10;0.95;;;;;;;18.60;52.09;102108.00;4821662;29;20030;-73
2020/12/26 07:45:26;;;;;;;0.98;0.60;;;;;;;18.55;51.99;102105.28;4793854;29;20034;-72
2020/12/26 07:47:53;;;;;;;1.45;0.77;;;;;;;18.54;51.93;102094.78;4824602;29;20026;-77
2020/12/26 07:50:21;;;;;;;3.67;0.70;;;;;;;18.66;51.71;102096.72;4826463;29;20046;-77
2020/12/26 07:53:06;;;;;;;1.20;0.65;;;;;;;18.60;52.04;102080.91;4805182;29;20030;-76
2020/12/26 07:55:33;;;;;;;0.65;0.43;;;;;;;18.67;51.67;102085.41;4825034;29;20585;-76
2020/12/26 07:58:11;;;;;;;1.83;0.70;;;;;;;18.67;51.78;102078.41;4825290;29;20053;-77
2020/12/26 08:00:39;;;;;;;2.45;1.10;;;;;;;18.54;51.50;102074.72;4822298;29;20500;-77
2020/12/26 08:03:09;;;;;;;4.28;1.52;;;;;;;18.56;52.04;102078.19;4791509;29;20403;-72
2020/12/26 08:05:37;;;;;;;3.60;1.40;;;;;;;18.48;51.90;102058.88;4794104;29;20490;-72
2020/12/26 08:08:21;;;;;;;1.48;0.90;;;;;;;18.52;52.10;102062.44;4824196;29;20258;-72
2020/12/26 08:10:54;;;;;;;4.18;1.63;;;;;;;18.55;52.26;102057.25;4822274;29;20050;-73
2020/12/26 08:13:19;;;;;;;3.25;1.40;;;;;;;18.64;52.07;102064.38;4808170;29;20015;-77
2020/12/26 08:15:45;;;;;;;3.80;1.40;;;;;;;18.56;52.28;102052.00;4803144;29;20398;-77
2020/12/26 08:18:10;;;;;;;3.97;1.70;;;;;;;18.59;52.16;102055.56;4815638;29;20049;-79
2020/12/26 08:20:37;;;;;;;4.95;1.60;;;;;;;18.66;52.02;102050.44;4816747;29;20505;-72
2020/12/26 08:23:02;;;;;;;5.85;1.30;;;;;;;18.65;52.33;102061.78;4809953;29;20034;-73
2020/12/26 08:25:29;;;;;;;2.88;1.50;;;;;;;18.63;52.42;102055.66;4804450;29;20035;-71
2020/12/26 08:27:55;;;;;;;3.22;1.33;;;;;;;18.69;52.25;102045.25;4820238;29;20057;-71
2020/12/26 08:30:34;;;;;;;3.78;1.30;;;;;;;18.69;52.24;102054.84;4823653;29;20496;-72
2020/12/26 08:33:29;;;;;;;5.15;1.75;;;;;;;18.65;52.43;102048.69;4822378;29;20107;-72
2020/12/26 08:36:06;;;;;;;1.83;1.10;;;;;;;18.69;52.36;102047.88;4809741;29;20026;-72
2020/12/26 08:38:42;;;;;;;2.55;1.27;;;;;;;18.69;52.40;102047.00;4803828;29;20042;-72
2020/12/26 08:41:10;;;;;;;2.58;1.35;;;;;;;18.62;52.62;102043.41;4818298;29;20122;-72
2020/12/26 08:43:38;;;;;;;2.53;1.25;;;;;;;18.69;52.32;102047.00;4791295;29;20031;-72
2020/12/26 08:46:17;;;;;;;2.85;1.30;;;;;;;18.74;52.23;102050.53;4804601;29;20041;-72
2020/12/26 08:48:43;;;;;;;4.00;1.30;;;;;;;18.65;52.49;102048.69;4806529;29;20073;-72
2020/12/26 08:51:22;;;;;;;3.10;1.27;;;;;;;18.67;52.48;102044.34;4822242;29;20080;-72
2020/12/26 08:53:49;;;;;;;3.65;1.50;;;;;;;18.63;52.51;102034.69;4822411;29;20061;-72
2020/12/26 08:56:15;;;;;;;3.50;1.02;;;;;;;18.71;52.60;102047.88;4826989;29;20125;-72
2020/12/26 08:58:50;;;;;;;3.78;1.95;;;;;;;18.66;52.35;102050.44;4814327;29;20125;-72
2020/12/26 09:01:15;;;;;;;3.20;1.20;;;;;;;18.73;52.56;102046.16;4798302;29;20115;-72
2020/12/26 09:03:50;;;;;;;2.45;1.30;;;;;;;18.75;52.39;102047.94;4786075;29;20051;-72
2020/12/26 09:06:16;;;;;;;3.13;1.15;;;;;;;18.69;52.51;102031.28;4809446;29;20462;-72
2020/12/26 09:08:42;;;;;;;3.67;1.35;;;;;;;18.76;52.46;102023.50;4808608;29;20111;-72
2020/12/26 09:11:11;;;;;;;4.32;1.10;;;;;;;18.77;52.42;102027.88;4811855;29;20042;-73
2020/12/26 09:13:44;;;;;;;2.08;1.00;;;;;;;18.68;52.42;102017.28;4818017;29;20448;-72
2020/12/26 09:16:11;;;;;;;1.93;1.00;;;;;;;18.75;52.47;102021.75;4795915;29;20038;-72
2020/12/26 09:18:37;;;;;;;3.92;1.40;;;;;;;18.82;52.07;102031.47;4788053;29;20030;-72
2020/12/26 09:21:03;;;;;;;2.67;0.90;;;;;;;18.77;52.32;102034.88;4812641;29;20034;-72
2020/12/26 09:23:38;;;;;;;1.92;1.00;;;;;;;18.77;52.53;102029.63;4805467;29;20441;-71
2020/12/26 09:26:28;;;;;;;3.00;1.52;;;;;;;18.80;52.27;102030.56;4818471;29;20087;-72
2020/12/26 09:28:59;;;;;;;1.73;0.90;;;;;;;18.75;52.49;102026.09;4814084;29;20039;-72
2020/12/26 09:31:30;;;;;;;2.30;0.93;;;;;;;18.77;52.37;102022.66;4827543;29;20056;-72
2020/12/26 09:33:58;;;;;;;2.67;1.33;;;;;;;18.88;52.31;102028.91;4828060;29;20042;-77
2020/12/26 09:36:26;;;;;;;2.30;1.10;;;;;;;18.85;52.13;102031.47;4833520;29;20054;-77
2020/12/26 09:38:52;;;;;;;2.53;1.10;;;;;;;18.87;52.21;102028.88;4826565;29;20031;-77
2020/12/26 09:41:25;;;;;;;2.80;1.00;;;;;;;18.92;52.20;102022.84;4819333;29;20071;-77
2020/12/26 09:43:53;;;;;;;2.47;0.93;;;;;;;18.96;52.11;102015.88;4828952;29;20461;-77
2020/12/26 09:46:19;;;;;;;2.85;0.98;;;;;;;19.02;51.97;102002.84;4816883;29;20038;-74
2020/12/26 09:48:46;;;;;;;1.90;1.00;;;;;;;19.02;52.01;102007.22;4804875;29;20030;-73
2020/12/26 09:51:19;;;;;;;1.95;0.80;;;;;;;18.95;52.29;102000.16;4831710;29;20037;-77
2020/12/26 09:53:45;;;;;;;2.72;1.20;;;;;;;19.02;52.48;101999.34;4825471;29;20034;-78
2020/12/26 09:56:12;;;;;;;3.05;1.38;;;;;;;18.98;52.27;101997.53;4824702;29;20045;-78
2020/12/26 09:58:39;;;;;;;3.35;1.20;;;;;;;18.94;52.35;102006.25;4793732;29;20080;-79
2020/12/26 10:01:05;;;;;;;1.73;1.00;;;;;;;19.01;52.40;101998.47;4807793;29;20062;-78
2020/12/26 10:03:30;;;;;;;1.65;0.80;;;;;;;19.06;52.41;102001.16;4809117;29;20054;-78
2020/12/26 10:05:55;;;;;;;2.00;1.10;;;;;;;19.02;52.43;101984.50;4824309;29;20039;-76
2020/12/26 10:08:21;;;;;;;6.05;2.92;;;;;;;19.08;52.67;101986.31;4823987;29;20038;-77
2020/12/26 10:10:46;;;;;;;1.48;0.80;;;;;;;19.19;52.38;101990.81;4799326;29;20470;-77
2020/12/26 10:13:12;;;;;;;3.00;1.10;;;;;;;19.13;52.85;101968.88;4792662;29;20086;-75
2020/12/26 10:15:37;;;;;;;5.22;1.15;;;;;;;19.26;52.78;101982.13;4800423;29;20031;-72
2020/12/26 10:18:02;;;;;;;3.03;1.48;;;;;;;19.35;52.53;101980.44;4821954;29;20102;-71
2020/12/26 10:20:28;;;;;;;5.95;4.60;;;;;;;19.24;53.74;101956.75;4815100;29;20398;-71
2020/12/26 10:22:53;;;;;;;8.05;6.88;;;;;;;19.27;53.99;101970.78;4794294;29;20439;-70
2020/12/26 10:25:18;;;;;;;5.38;3.97;;;;;;;19.34;53.57;101963.84;4784663;29;20042;-71
2020/12/26 10:27:44;;;;;;;4.13;3.25;;;;;;;19.36;53.31;101961.22;4821780;29;20041;-71
2020/12/26 10:30:09;;;;;;;4.03;2.70;;;;;;;19.28;53.52;101955.91;4811733;29;20030;-71
2020/12/26 10:32:35;;;;;;;5.28;2.78;;;;;;;19.33;53.17;101948.09;4804085;29;20046;-70
2020/12/26 10:35:01;;;;;;;2.33;1.80;;;;;;;19.31;53.12;101957.69;4807624;29;20039;-71
2020/12/26 10:37:27;;;;;;;2.35;1.50;;;;;;;19.24;53.70;101962.88;4812859;29;20091;-71
2020/12/26 10:39:53;;;;;;;3.60;1.80;;;;;;;19.22;53.79;101953.22;4787960;29;20034;-71
2020/12/26 10:42:18;;;;;;;2.80;2.17;;;;;;;19.25;53.33;101953.25;4811937;29;20448;-71
2020/12/26 10:44:43;;;;;;;5.28;2.15;;;;;;;19.18;53.84;101952.34;4785963;29;20105;-71
2020/12/26 10:47:09;;;;;;;1.95;1.33;;;;;;;19.17;53.66;101950.56;4814174;29;20474;-71
2020/12/26 10:49:34;;;;;;;2.65;1.48;;;;;;;19.23;53.68;101940.13;4785910;29;20042;-71
2020/12/26 10:51:59;;;;;;;4.18;1.33;;;;;;;19.18;53.91;101939.22;4810534;29;20102;-71
2020/12/26 10:54:25;;;;;;;1.63;1.10;;;;;;;19.11;53.77;101926.91;4797919;29;20054;-70
2020/12/26 10:56:50;;;;;;;2.05;1.02;;;;;;;19.16;53.59;101926.94;4816685;29;20026;-71
2020/12/26 10:59:15;;;;;;;3.17;1.00;;;;;;;19.17;53.60;101923.47;4789554;29;20047;-70
2020/12/26 11:01:41;;;;;;;1.77;0.80;;;;;;;19.17;53.94;101921.72;4819841;29;20038;-71
2020/12/26 11:04:07;;;;;;;2.08;1.20;;;;;;;19.17;53.37;101913.88;4824643;29;20102;-71
2020/12/26 11:06:32;;;;;;;2.25;1.17;;;;;;;19.20;53.51;101906.03;4790557;29;20034;-71
2020/12/26 11:08:58;;;;;;;1.50;1.00;;;;;;;19.19;53.77;101912.13;4805569;29;20034;-71
2020/12/26 11:11:23;;;;;;;1.30;1.00;;;;;;;19.24;53.67;101901.66;4802764;29;20062;-71
2020/12/26 11:13:49;;;;;;;3.55;1.10;;;;;;;19.23;53.60;101906.03;4818232;29;20757;-71
2020/12/26 11:16:15;;;;;;;1.60;0.60;;;;;;;19.18;53.67;101901.63;4802515;29;20489;-71
2020/12/26 11:18:42;;;;;;;1.98;0.80;;;;;;;19.13;53.67;101893.72;4806291;29;20041;-76
2020/12/26 11:21:08;;;;;;;2.17;1.05;;;;;;;19.21;53.54;101883.31;4802177;29;20034;-75
2020/12/26 11:23:33;;;;;;;3.80;1.08;;;;;;;19.17;53.63;101871.91;4805250;29;20030;-75
2020/12/26 11:25:59;;;;;;;1.52;0.90;;;;;;;19.17;53.79;101863.16;4827239;29;20033;-75
2020/12/26 11:28:24;;;;;;;2.67;0.80;;;;;;;19.24;53.33;101857.09;4805736;29;20039;-75